Time;durP1;ratioP1;P1;durP2;ratioP2;P2;SDS_P1;SDS_P2;PMS_P1;PMS_P2;Temp;Humidity;BMP_temperature;BMP_pressure;BME280_temperature;BME280_humidity;BME280_pressure;Samples;Min_cycle;Max_cycle;Signal;HPM_P1;HPM_P2
2023/04/17 00:00:03;;;;;;;5.38;3.40;;;;;;;6.58;83.38;101638.34;2105890;28;20214;-84
2023/04/17 00:01:12;;;;;;;5.13;3.55;;;;;;;6.55;83.23;101632.63;2111577;28;20242;-82
2023/04/17 00:02:14;;;;;;;4.82;3.47;;;;;;;6.56;83.91;101634.25;2107547;28;20126;-79
2023/04/17 00:03:16;;;;;;;5.28;3.63;;;;;;;6.56;83.65;101635.09;2089481;28;20316;-82
2023/04/17 00:04:23;;;;;;;7.30;3.80;;;;;;;6.53;83.32;101630.19;2090488;28;20205;-80
2023/04/17 00:05:27;;;;;;;4.72;3.50;;;;;;;6.48;84.09;101646.06;2090673;28;20269;-82
2023/04/17 00:06:32;;;;;;;7.88;4.10;;;;;;;6.45;84.21;101635.84;2091861;28;20280;-81
2023/04/17 00:07:37;;;;;;;6.70;4.18;;;;;;;6.46;84.12;101642.81;2106838;28;20200;-83
2023/04/17 00:08:39;;;;;;;7.18;4.03;;;;;;;6.43;84.21;101641.41;2115146;27;20219;-83
2023/04/17 00:09:43;;;;;;;7.45;4.25;;;;;;;6.45;84.46;101635.84;2105905;28;20331;-84
2023/04/17 00:10:44;;;;;;;6.43;4.50;;;;;;;6.47;84.63;101639.94;2106519;27;20204;-83
2023/04/17 00:11:48;;;;;;;6.70;4.40;;;;;;;6.52;84.24;101647.25;2105893;28;20246;-82
2023/04/17 00:12:55;;;;;;;6.35;4.28;;;;;;;6.50;84.61;101644.00;2098434;28;21006;-79
2023/04/17 00:13:57;;;;;;;6.32;4.40;;;;;;;6.40;84.66;101638.34;2099017;28;20355;-80
2023/04/17 00:15:00;;;;;;;7.15;4.32;;;;;;;6.40;84.26;101638.34;2106738;28;20224;-84
2023/04/17 00:16:01;;;;;;;8.27;4.88;;;;;;;6.38;84.50;101641.25;2102703;27;20616;-79
2023/04/17 00:17:05;;;;;;;5.70;4.15;;;;;;;6.38;84.43;101643.13;2114658;28;20920;-81
2023/04/17 00:18:10;;;;;;;6.53;4.50;;;;;;;6.38;84.77;101638.59;2106618;28;20939;-82
2023/04/17 00:19:13;;;;;;;7.68;4.28;;;;;;;6.38;84.88;101645.81;2103251;28;21096;-81
2023/04/17 00:20:21;;;;;;;6.93;4.50;;;;;;;6.34;84.99;101644.63;2107242;27;20207;-80
2023/04/17 00:21:30;;;;;;;6.07;4.43;;;;;;;6.33;85.32;101643.78;2097572;28;20125;-82
2023/04/17 00:22:35;;;;;;;7.05;4.55;;;;;;;6.37;84.83;101639.66;2091311;28;20815;-82
2023/04/17 00:23:41;;;;;;;7.20;4.75;;;;;;;6.40;85.15;101643.69;2098078;28;21150;-82
2023/04/17 00:24:43;;;;;;;7.55;4.82;;;;;;;6.42;85.57;101646.97;2097815;28;20256;-78
2023/04/17 00:25:46;;;;;;;7.50;4.93;;;;;;;6.39;85.27;101645.56;2092709;28;21156;-81
2023/04/17 00:26:58;;;;;;;8.25;4.60;;;;;;;6.34;85.58;101639.28;2090219;28;20308;-81
2023/04/17 00:28:02;;;;;;;8.80;5.07;;;;;;;6.37;85.78;101654.84;2082157;28;20233;-81
2023/04/17 00:29:03;;;;;;;7.45;5.18;;;;;;;6.34;85.90;101650.78;2081426;28;20928;-81
2023/04/17 00:30:12;;;;;;;6.68;4.50;;;;;;;6.37;86.19;101657.50;2097304;28;20313;-79
2023/04/17 00:31:16;;;;;;;8.70;5.40;;;;;;;6.30;86.04;101649.56;2097994;28;20275;-82
2023/04/17 00:32:20;;;;;;;6.75;4.97;;;;;;;6.26;86.08;101649.19;2098035;28;20208;-82
2023/04/17 00:33:21;;;;;;;9.07;5.53;;;;;;;6.24;86.29;101650.47;2097688;28;20999;-83
2023/04/17 00:34:31;;;;;;;8.02;4.85;;;;;;;6.24;86.16;101650.47;2089999;28;20253;-81
2023/04/17 00:35:34;;;;;;;9.15;5.05;;;;;;;6.24;85.86;101647.78;2091299;28;20197;-82
2023/04/17 00:36:45;;;;;;;7.30;4.60;;;;;;;6.21;85.88;101648.22;2107326;28;20235;-82
2023/04/17 00:37:50;;;;;;;7.72;5.07;;;;;;;6.17;86.16;101650.53;2106019;28;20212;-81
2023/04/17 00:38:52;;;;;;;8.30;4.93;;;;;;;6.16;86.04;101651.59;2097897;28;20968;-81
2023/04/17 00:39:54;;;;;;;9.00;5.05;;;;;;;6.18;86.66;101646.84;2098032;28;20236;-83
2023/04/17 00:41:00;;;;;;;8.48;4.70;;;;;;;6.23;86.51;101651.50;2101541;28;20247;-81
2023/04/17 00:42:03;;;;;;;6.70;4.63;;;;;;;6.25;86.23;101652.09;2098306;28;20369;-79
2023/04/17 00:43:07;;;;;;;7.85;5.35;;;;;;;6.23;86.58;101644.31;2098121;28;21094;-79
2023/04/17 00:44:11;;;;;;;9.02;5.78;;;;;;;6.28;86.43;101640.16;2081574;28;20198;-80
2023/04/17 00:45:14;;;;;;;9.82;5.15;;;;;;;6.28;86.87;101642.84;2097804;28;20326;-80
2023/04/17 00:46:19;;;;;;;7.68;4.90;;;;;;;6.23;86.81;101649.66;2084066;28;20256;-82
2023/04/17 00:47:25;;;;;;;7.78;5.50;;;;;;;6.23;86.33;101646.97;2099647;28;20363;-81
2023/04/17 00:48:35;;;;;;;8.30;4.93;;;;;;;6.25;86.54;101650.25;2105839;28;20214;-80
2023/04/17 00:49:39;;;;;;;12.43;5.18;;;;;;;6.26;86.68;101649.19;2098686;28;20295;-82
2023/04/17 00:50:45;;;;;;;7.10;4.85;;;;;;;6.34;86.65;101649.97;2115306;27;20238;-81
2023/04/17 00:51:46;;;;;;;9.27;5.30;;;;;;;6.32;86.36;101655.50;2104886;28;20338;-81
2023/04/17 00:52:50;;;;;;;7.82;5.13;;;;;;;6.30;86.20;101656.78;2080823;28;21184;-80
2023/04/17 00:53:58;;;;;;;10.65;5.55;;;;;;;6.35;86.59;101656.94;2099112;28;20375;-79
2023/04/17 00:55:06;;;;;;;8.27;5.00;;;;;;;6.28;86.30;101650.84;2104669;28;20243;-83
2023/04/17 00:56:10;;;;;;;8.07;5.15;;;;;;;6.29;86.39;101655.16;2103203;28;20518;-83
2023/04/17 00:57:12;;;;;;;6.60;4.68;;;;;;;6.32;86.29;101657.38;2105799;28;20330;-80
2023/04/17 00:58:14;;;;;;;7.85;4.97;;;;;;;6.28;86.44;101651.66;2105446;28;21010;-80
2023/04/17 00:59:19;;;;;;;7.68;4.95;;;;;;;6.29;86.70;101655.16;2080893;28;20210;-79
2023/04/17 01:00:24;;;;;;;10.25;5.22;;;;;;;6.30;86.58;101649.56;2083327;28;20198;-80
2023/04/17 01:01:26;;;;;;;7.20;4.75;;;;;;;6.36;86.14;101661.22;2106420;28;20255;-79
2023/04/17 01:02:35;;;;;;;7.35;4.80;;;;;;;6.39;86.43;101652.75;2105240;28;20451;-79
2023/04/17 01:03:43;;;;;;;9.07;5.68;;;;;;;6.34;85.98;101657.97;2105837;28;20239;-78
2023/04/17 01:04:47;;;;;;;7.47;5.28;;;;;;;6.30;86.22;101652.25;2106791;28;20048;-81
2023/04/17 01:05:50;;;;;;;7.63;5.20;;;;;;;6.31;86.40;101655.75;2105516;28;20243;-81
2023/04/17 01:06:54;;;;;;;9.65;5.68;;;;;;;6.36;86.07;101658.56;2097036;28;20267;-80
2023/04/17 01:07:59;;;;;;;7.75;5.28;;;;;;;6.37;85.99;101649.50;2090572;28;20245;-80
2023/04/17 01:09:00;;;;;;;8.57;5.28;;;;;;;6.30;86.06;101643.41;2097459;28;20236;-80
2023/04/17 01:10:08;;;;;;;7.90;5.20;;;;;;;6.28;85.71;101656.19;2089513;28;20327;-80
2023/04/17 01:11:11;;;;;;;8.52;5.22;;;;;;;6.24;86.09;101650.47;2097245;28;20248;-80
2023/04/17 01:12:24;;;;;;;7.75;5.45;;;;;;;6.24;86.34;101647.78;2097571;28;20245;-79
2023/04/17 01:13:28;;;;;;;11.05;5.88;;;;;;;6.23;86.08;101651.50;2097203;28;20318;-80
2023/04/17 01:14:35;;;;;;;9.10;5.22;;;;;;;6.27;86.33;101655.34;2097613;28;20529;-80
2023/04/17 01:15:37;;;;;;;8.27;5.60;;;;;;;6.32;86.11;101655.50;2106078;28;20271;-78
2023/04/17 01:16:43;;;;;;;7.78;5.07;;;;;;;6.28;86.33;101656.19;2102436;27;21659;-79
2023/04/17 01:17:49;;;;;;;8.57;5.30;;;;;;;6.24;86.50;101655.81;2105308;28;20302;-78
2023/04/17 01:18:54;;;;;;;9.63;5.57;;;;;;;6.21;86.50;101651.75;2105499;28;21102;-80
2023/04/17 01:19:56;;;;;;;7.43;5.10;;;;;;;6.24;86.69;101651.31;2090441;28;20284;-80
2023/04/17 01:21:02;;;;;;;8.93;5.40;;;;;;;6.22;86.11;101653.38;2093640;27;20248;-79
2023/04/17 01:22:03;;;;;;;7.95;4.95;;;;;;;6.23;86.33;101657.66;2098072;28;21271;-79
2023/04/17 01:23:07;;;;;;;7.60;5.45;;;;;;;6.23;86.70;101657.66;2083077;28;20238;-77
2023/04/17 01:24:15;;;;;;;7.95;5.30;;;;;;;6.12;86.95;101647.72;2079564;28;20237;-80
2023/04/17 01:25:20;;;;;;;8.10;5.28;;;;;;;6.19;87.01;101661.00;2093386;28;20256;-80
2023/04/17 01:26:27;;;;;;;7.30;4.68;;;;;;;6.24;87.03;101659.31;2089076;28;20263;-82
2023/04/17 01:27:34;;;;;;;7.57;5.05;;;;;;;6.28;86.56;101658.88;2093694;28;20241;-80
2023/04/17 01:28:38;;;;;;;8.07;5.18;;;;;;;6.30;86.98;101659.44;2106275;28;20231;-83
2023/04/17 01:29:41;;;;;;;6.75;5.05;;;;;;;6.28;86.87;101661.53;2090589;28;20274;-79
2023/04/17 01:30:45;;;;;;;8.95;5.10;;;;;;;6.29;86.63;101661.31;2099549;28;20216;-79
2023/04/17 01:31:51;;;;;;;7.97;5.00;;;;;;;6.34;86.94;101663.31;2115363;27;20210;-84
2023/04/17 01:33:03;;;;;;;8.30;5.13;;;;;;;6.36;86.90;101658.56;2107981;28;20333;-81
2023/04/17 01:34:07;;;;;;;7.07;4.78;;;;;;;6.30;86.16;101664.78;2099626;28;20044;-83
2023/04/17 01:35:14;;;;;;;6.55;4.78;;;;;;;6.33;86.67;101659.81;2098730;28;20200;-80
2023/04/17 01:36:15;;;;;;;7.75;4.63;;;;;;;6.30;86.03;101664.78;2091258;28;20220;-79
2023/04/17 01:37:20;;;;;;;5.75;4.45;;;;;;;6.30;86.06;101664.78;2099423;28;20341;-80
2023/04/17 01:38:26;;;;;;;8.27;5.15;;;;;;;6.31;86.37;101664.56;2099139;28;21013;-82
2023/04/17 01:39:35;;;;;;;7.18;4.55;;;;;;;6.31;86.17;101663.75;2091420;28;20213;-82
2023/04/17 01:40:39;;;;;;;8.52;4.72;;;;;;;6.33;86.04;101669.69;2102035;28;20236;-82
2023/04/17 01:41:41;;;;;;;6.80;4.60;;;;;;;6.31;86.24;101663.75;2098590;28;20037;-79
2023/04/17 01:42:43;;;;;;;6.63;4.60;;;;;;;6.28;85.89;101666.88;2099473;28;20201;-88
2023/04/17 01:43:46;;;;;;;6.88;4.60;;;;;;;6.28;85.88;101659.69;2099025;28;20300;-78
2023/04/17 01:44:50;;;;;;;8.30;4.78;;;;;;;6.28;86.17;101661.53;2082618;28;20238;-80
2023/04/17 01:45:53;;;;;;;8.90;5.00;;;;;;;6.32;86.13;101674.22;2099103;28;20250;-82
2023/04/17 01:46:55;;;;;;;7.13;4.80;;;;;;;6.34;86.40;101666.00;2095257;28;20302;-82
2023/04/17 01:48:00;;;;;;;7.05;4.50;;;;;;;6.37;86.36;101660.19;2097879;28;20244;-80
2023/04/17 01:49:04;;;;;;;8.43;5.05;;;;;;;6.40;86.46;101668.59;2082759;28;20285;-86
2023/04/17 01:50:12;;;;;;;7.82;4.93;;;;;;;6.49;86.38;101659.22;2100908;28;20210;-78
2023/04/17 01:51:18;;;;;;;7.03;5.00;;;;;;;6.51;85.96;101667.00;2100091;28;20211;-77
2023/04/17 01:52:22;;;;;;;9.18;4.90;;;;;;;6.50;86.24;101665.38;2100332;28;20355;-77
2023/04/17 01:53:26;;;;;;;7.70;4.90;;;;;;;6.49;85.87;101661.06;2098509;28;20340;-78
2023/04/17 01:54:27;;;;;;;10.05;5.35;;;;;;;6.41;85.59;101659.53;2098469;28;20978;-80
2023/04/17 01:55:33;;;;;;;8.57;5.38;;;;;;;6.43;85.74;101661.94;2090441;28;20203;-79
2023/04/17 01:56:38;;;;;;;8.63;5.30;;;;;;;6.42;86.01;101663.00;2082914;28;20213;-87
2023/04/17 01:57:41;;;;;;;8.23;5.55;;;;;;;6.37;86.16;101665.50;2091819;28;20198;-84
2023/04/17 01:58:46;;;;;;;8.57;5.47;;;;;;;6.37;86.20;101657.50;2090879;28;21032;-86
2023/04/17 01:59:50;;;;;;;8.00;5.47;;;;;;;6.35;86.48;101663.09;2084079;28;20248;-85
2023/04/17 02:00:52;;;;;;;9.63;5.75;;;;;;;6.33;86.61;101659.00;2090535;28;20237;-82
2023/04/17 02:01:55;;;;;;;11.05;5.88;;;;;;;6.35;86.36;101672.97;2090672;28;20217;-84
2023/04/17 02:02:59;;;;;;;8.23;5.45;;;;;;;6.36;86.79;101669.25;2090105;28;20955;-79
2023/04/17 02:04:07;;;;;;;9.60;5.75;;;;;;;6.30;86.72;101670.94;2091151;28;21161;-84
2023/04/17 02:05:11;;;;;;;8.68;5.38;;;;;;;6.32;86.57;101670.72;2099564;28;20329;-84
2023/04/17 02:06:13;;;;;;;9.15;5.50;;;;;;;6.30;87.00;101676.28;2108233;27;20243;-79
2023/04/17 02:07:15;;;;;;;10.13;5.50;;;;;;;6.25;86.92;101671.63;2089944;28;20323;-85
2023/04/17 02:08:17;;;;;;;9.20;5.93;;;;;;;6.25;87.28;101668.13;2090537;28;20255;-84
2023/04/17 02:09:18;;;;;;;8.48;5.90;;;;;;;6.23;86.90;101671.00;2090203;28;20213;-83
2023/04/17 02:10:22;;;;;;;8.82;5.82;;;;;;;6.19;87.26;101659.16;2090336;28;20992;-84
2023/04/17 02:11:29;;;;;;;8.48;5.45;;;;;;;6.25;86.93;101666.28;2101744;28;21145;-82
2023/04/17 02:12:34;;;;;;;7.93;5.13;;;;;;;6.32;87.24;101673.41;2115266;28;21058;-83
2023/04/17 02:13:38;;;;;;;8.95;5.32;;;;;;;6.34;86.90;101674.00;2114149;28;20328;-84
2023/04/17 02:14:45;;;;;;;10.07;6.15;;;;;;;6.30;86.93;101670.13;2106916;28;21318;-84
2023/04/17 02:15:51;;;;;;;9.65;5.70;;;;;;;6.28;86.88;101672.22;2105076;28;21310;-79
2023/04/17 02:16:53;;;;;;;8.80;5.88;;;;;;;6.26;86.47;101675.09;2078691;28;20205;-82
2023/04/17 02:17:54;;;;;;;8.45;5.70;;;;;;;6.27;86.58;101671.38;2098729;28;20340;-79
2023/04/17 02:18:58;;;;;;;9.25;6.07;;;;;;;6.28;86.77;101673.03;2097893;28;20264;-79
2023/04/17 02:20:05;;;;;;;8.95;5.57;;;;;;;6.22;86.76;101669.38;2082087;28;21049;-80
2023/04/17 02:21:08;;;;;;;8.60;5.93;;;;;;;6.23;87.14;101680.88;2082695;28;20246;-81
2023/04/17 02:22:13;;;;;;;9.70;6.10;;;;;;;6.29;87.06;101673.84;2083227;28;20344;-81
2023/04/17 02:23:17;;;;;;;10.85;6.63;;;;;;;6.26;86.51;101669.75;2090293;28;20271;-81
2023/04/17 02:24:21;;;;;;;9.68;5.88;;;;;;;6.28;86.85;101677.56;2098547;28;21158;-80
2023/04/17 02:25:25;;;;;;;10.63;6.35;;;;;;;6.24;86.67;101670.00;2090493;28;21118;-80
2023/04/17 02:26:30;;;;;;;10.38;6.25;;;;;;;6.28;86.55;101677.56;2090363;28;20336;-83
2023/04/17 02:27:41;;;;;;;9.98;5.95;;;;;;;6.30;86.59;101680.81;2091410;28;20197;-78
2023/04/17 02:28:51;;;;;;;10.05;5.90;;;;;;;6.31;86.25;101671.78;2116623;27;20199;-78
2023/04/17 02:29:53;;;;;;;10.77;6.28;;;;;;;6.31;86.72;101682.47;2106425;28;20047;-86
2023/04/17 02:30:54;;;;;;;8.50;5.70;;;;;;;6.29;86.71;101688.00;2107279;28;20244;-85
2023/04/17 02:31:59;;;;;;;9.70;6.07;;;;;;;6.30;87.07;101681.63;2107634;28;20196;-83
2023/04/17 02:33:06;;;;;;;10.35;6.38;;;;;;;6.28;86.81;101677.56;2099328;28;20232;-83
2023/04/17 02:34:11;;;;;;;10.55;6.20;;;;;;;6.24;86.64;101686.03;2099332;28;20267;-81
2023/04/17 02:35:19;;;;;;;10.73;6.60;;;;;;;6.24;87.22;101683.34;2099137;28;20274;-79
2023/04/17 02:36:21;;;;;;;11.27;7.05;;;;;;;6.25;86.79;101684.97;2098102;28;20207;-80
2023/04/17 02:37:26;;;;;;;11.65;6.45;;;;;;;6.31;87.12;101685.13;2090356;28;20201;-80
2023/04/17 02:38:33;;;;;;;12.05;6.68;;;;;;;6.33;87.13;101685.72;2090987;28;20249;-80
2023/04/17 02:39:37;;;;;;;11.68;6.90;;;;;;;6.35;86.59;101689.78;2099046;28;20205;-80
2023/04/17 02:40:48;;;;;;;11.07;6.75;;;;;;;6.35;86.60;101689.78;2097798;28;20327;-80
2023/04/17 02:41:50;;;;;;;12.13;7.13;;;;;;;6.36;86.72;101688.75;2091753;28;20202;-80
2023/04/17 02:42:51;;;;;;;11.50;6.63;;;;;;;6.32;86.50;101674.22;2098236;28;20208;-80
2023/04/17 02:43:53;;;;;;;10.80;7.00;;;;;;;6.39;86.92;101688.31;2088435;28;20208;-79
2023/04/17 02:44:55;;;;;;;10.68;6.70;;;;;;;6.43;86.52;101691.34;2098339;28;20212;-80
2023/04/17 02:45:57;;;;;;;11.50;6.53;;;;;;;6.42;86.95;101685.19;2106314;28;21174;-81
2023/04/17 02:47:00;;;;;;;12.20;6.47;;;;;;;6.42;86.74;101684.38;2090467;28;20262;-80
2023/04/17 02:48:06;;;;;;;10.98;6.63;;;;;;;6.43;86.55;101691.34;2098589;28;20222;-80
2023/04/17 02:49:08;;;;;;;10.55;6.40;;;;;;;6.38;86.63;101683.19;2090479;28;20249;-77
2023/04/17 02:50:15;;;;;;;11.30;6.45;;;;;;;6.33;86.37;101691.88;2098681;28;20205;-77
2023/04/17 02:51:34;;;;;;;9.52;6.13;;;;;;;6.29;86.65;101689.88;2100148;28;20347;-77
2023/04/17 02:52:35;;;;;;;11.18;6.10;;;;;;;6.25;86.34;101692.97;2099360;28;20774;-79
2023/04/17 02:53:40;;;;;;;12.13;7.10;;;;;;;6.34;86.66;101690.03;2106739;28;21050;-79
2023/04/17 02:54:48;;;;;;;9.73;6.43;;;;;;;6.40;87.00;101689.13;2107015;28;20270;-78
2023/04/17 02:55:52;;;;;;;9.82;6.10;;;;;;;6.45;86.58;101689.28;2115211;28;20199;-79
2023/04/17 02:56:58;;;;;;;10.52;6.38;;;;;;;6.49;86.86;101693.13;2106744;28;20027;-78
2023/04/17 02:58:02;;;;;;;10.68;6.60;;;;;;;6.53;86.52;101693.53;2098718;28;20212;-79
2023/04/17 02:59:08;;;;;;;9.85;6.10;;;;;;;6.45;86.48;101690.09;2082573;28;20250;-81
2023/04/17 03:00:14;;;;;;;10.45;6.35;;;;;;;6.46;86.69;101697.09;2074770;28;21062;-81
2023/04/17 03:01:16;;;;;;;10.57;6.88;;;;;;;6.46;86.31;101690.91;2100195;27;21146;-81
2023/04/17 03:02:23;;;;;;;10.65;6.13;;;;;;;6.47;86.19;101695.22;2106105;28;20275;-81
2023/04/17 03:03:33;;;;;;;10.98;6.20;;;;;;;6.52;86.26;101695.34;2108201;27;21642;-82
2023/04/17 03:04:37;;;;;;;10.52;6.20;;;;;;;6.48;86.48;101707.53;2106805;28;20285;-83
2023/04/17 03:05:39;;;;;;;10.68;6.10;;;;;;;6.43;86.40;101696.69;2099007;28;21079;-82
2023/04/17 03:06:45;;;;;;;9.48;6.10;;;;;;;6.39;86.64;101701.66;2097830;28;20334;-80
2023/04/17 03:07:49;;;;;;;10.20;5.95;;;;;;;6.41;87.03;101699.59;2089353;28;20972;-82
2023/04/17 03:08:52;;;;;;;9.45;6.20;;;;;;;6.46;87.09;101704.25;2090096;28;20212;-81
2023/04/17 03:09:56;;;;;;;12.88;6.93;;;;;;;6.50;86.94;101700.13;2089768;28;20347;-83
2023/04/17 03:10:58;;;;;;;12.75;6.63;;;;;;;6.49;87.18;101706.47;2097986;28;21114;-83
2023/04/17 03:12:01;;;;;;;11.10;6.30;;;;;;;6.44;86.78;101701.81;2111031;27;20207;-82
2023/04/17 03:13:06;;;;;;;9.65;6.13;;;;;;;6.47;86.73;101701.38;2114629;28;21043;-81
2023/04/17 03:14:10;;;;;;;9.20;6.15;;;;;;;6.41;86.87;101709.47;2089948;28;21077;-82
2023/04/17 03:15:15;;;;;;;13.30;6.78;;;;;;;6.42;87.01;101711.09;2082891;28;20237;-82
2023/04/17 03:16:17;;;;;;;9.10;5.70;;;;;;;6.39;87.02;101706.19;2090284;28;20319;-82
2023/04/17 03:17:21;;;;;;;11.30;6.45;;;;;;;6.38;87.00;101708.03;2095297;28;20243;-88
2023/04/17 03:18:25;;;;;;;10.05;5.80;;;;;;;6.36;87.01;101702.09;2106336;28;20236;-81
2023/04/17 03:19:30;;;;;;;8.77;5.97;;;;;;;6.35;87.10;101707.69;2090790;28;20213;-80
2023/04/17 03:20:34;;;;;;;10.80;5.88;;;;;;;6.32;87.02;101711.59;2107145;28;20303;-83
2023/04/17 03:21:39;;;;;;;10.38;6.40;;;;;;;6.28;86.65;101709.63;2098155;28;21462;-84
2023/04/17 03:22:45;;;;;;;12.77;6.32;;;;;;;6.33;87.24;101717.75;2091577;28;20286;-83
2023/04/17 03:23:47;;;;;;;10.55;6.10;;;;;;;6.31;87.23;101714.50;2089926;28;20220;-84
2023/04/17 03:24:51;;;;;;;10.32;5.93;;;;;;;6.31;87.00;101722.53;2089595;28;20267;-84
2023/04/17 03:25:55;;;;;;;10.25;6.20;;;;;;;6.31;86.88;101714.50;2090543;28;20197;-81
2023/04/17 03:26:58;;;;;;;8.98;5.60;;;;;;;6.31;86.95;101714.50;2098178;28;20208;-80
2023/04/17 03:28:04;;;;;;;9.75;5.97;;;;;;;6.30;86.73;101716.34;2098594;28;20212;-82
2023/04/17 03:29:08;;;;;;;10.82;5.80;;;;;;;6.31;87.26;101715.31;2098829;28;20266;-83
2023/04/17 03:30:15;;;;;;;7.65;5.22;;;;;;;6.30;87.00;101713.66;2106821;28;21064;-83
2023/04/17 03:31:22;;;;;;;10.00;6.13;;;;;;;6.30;87.12;101712.84;2097893;28;20201;-82
2023/04/17 03:32:28;;;;;;;7.97;5.45;;;;;;;6.29;87.14;101721.91;2090885;28;20331;-81
2023/04/17 03:33:32;;;;;;;8.63;5.53;;;;;;;6.29;87.12;101713.91;2081596;28;20250;-81
2023/04/17 03:34:34;;;;;;;8.93;6.05;;;;;;;6.33;87.40;101717.75;2082569;28;20206;-81
2023/04/17 03:35:36;;;;;;;9.20;5.70;;;;;;;6.36;87.45;101722.66;2081434;28;21121;-81
2023/04/17 03:36:41;;;;;;;10.02;5.97;;;;;;;6.37;87.35;101714.44;2083726;28;20306;-81
2023/04/17 03:37:43;;;;;;;8.98;6.00;;;;;;;6.39;87.52;101708.88;2089695;28;21424;-81
2023/04/17 03:38:47;;;;;;;11.43;6.65;;;;;;;6.39;87.25;101716.88;2098987;28;21062;-80
2023/04/17 03:39:51;;;;;;;10.32;6.18;;;;;;;6.39;87.42;101719.53;2106710;28;20305;-81
2023/04/17 03:40:52;;;;;;;10.70;6.13;;;;;;;6.45;87.77;101724.00;2106561;28;20235;-79
2023/04/17 03:42:01;;;;;;;11.43;6.30;;;;;;;6.45;87.48;101721.34;2106898;28;21048;-81
2023/04/17 03:43:02;;;;;;;10.98;7.20;;;;;;;6.42;87.53;101719.91;2098424;28;20311;-80
2023/04/17 03:44:08;;;;;;;13.23;6.90;;;;;;;6.39;87.10;101722.22;2083311;28;20258;-81
2023/04/17 03:45:13;;;;;;;13.25;7.00;;;;;;;6.36;87.13;101728.00;2081913;28;20284;-81
2023/04/17 03:46:17;;;;;;;12.77;6.90;;;;;;;6.37;87.47;101724.28;2082089;28;20281;-80
2023/04/17 03:47:24;;;;;;;14.15;6.95;;;;;;;6.34;87.66;101727.44;2075581;28;21506;-82
2023/04/17 03:48:29;;;;;;;13.02;6.95;;;;;;;6.37;87.61;101725.13;2090620;28;20237;-82
2023/04/17 03:49:33;;;;;;;11.32;6.60;;;;;;;6.37;87.60;101726.97;2083122;28;21585;-86
2023/04/17 03:50:37;;;;;;;10.60;6.85;;;;;;;6.36;87.65;101733.34;2090824;28;20209;-88
2023/04/17 03:51:38;;;;;;;11.70;7.00;;;;;;;6.38;87.85;101736.63;2089810;28;20237;-84
2023/04/17 03:52:46;;;;;;;18.45;7.78;;;;;;;6.35;87.85;101734.41;2100066;28;20283;-85
2023/04/17 03:53:51;;;;;;;17.58;7.88;;;;;;;6.33;88.02;101739.13;2098026;28;20197;-88
2023/04/17 03:54:55;;;;;;;14.40;7.68;;;;;;;6.35;87.85;101739.72;2091409;28;20228;-88
2023/04/17 03:56:00;;;;;;;12.02;7.20;;;;;;;6.38;87.91;101741.97;2090173;28;20209;-88
2023/04/17 03:57:06;;;;;;;;;;;;;;;6.40;88.37;101738.03;2092562;28;20303;-82
2023/04/17 03:58:10;;;;;;;12.02;6.80;;;;;;;6.42;88.53;101729.78;2081498;28;20767;-82
2023/04/17 04:02:30;;;;;;;13.98;7.88;;;;;;;6.45;88.49;101738.16;2109331;28;20475;-81
2023/04/17 04:03:31;;;;;;;16.60;8.40;;;;;;;6.45;88.39;101737.34;2105387;28;21134;-87
2023/04/17 04:04:36;;;;;;;15.43;8.90;;;;;;;6.48;88.35;101736.91;2082741;28;20208;-87
2023/04/17 04:05:44;;;;;;;13.38;8.27;;;;;;;6.48;88.39;101740.41;2089965;28;20212;-86
